createdAt,value
2023-01-30T00:01:10.494Z,-3.11
2023-01-30T00:03:36.740Z,-3.21
2023-01-30T00:06:03.009Z,-3.32
2023-01-30T00:08:29.327Z,-3.32
2023-01-30T00:10:55.606Z,-3.34
2023-01-30T00:13:21.876Z,-3.47
2023-01-30T00:15:48.129Z,-3.84
2023-01-30T00:18:14.378Z,-3.73
2023-01-30T00:20:40.622Z,-3.56
2023-01-30T00:23:06.877Z,-3.49
2023-01-30T00:25:33.193Z,-3.38
2023-01-30T00:27:59.503Z,-3.37
2023-01-30T00:30:25.796Z,-3.51
2023-01-30T00:32:52.317Z,-3.66
2023-01-30T00:35:18.564Z,-3.59
2023-01-30T00:37:44.857Z,-3.44
2023-01-30T00:40:11.134Z,-3.40
2023-01-30T00:42:37.426Z,-3.40
2023-01-30T00:45:03.727Z,-3.37
2023-01-30T00:47:30.009Z,-3.28
2023-01-30T00:49:56.266Z,-3.23
2023-01-30T00:52:22.515Z,-3.25
2023-01-30T00:54:48.767Z,-3.35
2023-01-30T00:57:15.021Z,-3.35
2023-01-30T00:59:41.312Z,-3.37
2023-01-30T01:02:07.564Z,-3.48
2023-01-30T01:04:33.832Z,-3.49
2023-01-30T01:07:00.158Z,-3.48
2023-01-30T01:09:26.404Z,-3.48
2023-01-30T01:11:52.645Z,-3.53
2023-01-30T01:14:18.988Z,-3.60
2023-01-30T01:16:45.459Z,-3.52
2023-01-30T01:19:11.701Z,-3.49
2023-01-30T01:21:38.020Z,-3.55
2023-01-30T01:24:04.298Z,-3.64
2023-01-30T01:26:30.578Z,-3.50
2023-01-30T01:28:56.892Z,-3.44
2023-01-30T01:31:23.289Z,-3.37
2023-01-30T01:33:49.563Z,-3.27
2023-01-30T01:36:29.289Z,-3.32
2023-01-30T01:39:02.115Z,-3.49
2023-01-30T01:41:28.343Z,-3.41
2023-01-30T01:43:54.738Z,-3.38
2023-01-30T01:46:20.998Z,-3.35
2023-01-30T01:48:47.326Z,-3.36
2023-01-30T01:51:13.558Z,-3.31
2023-01-30T01:53:39.846Z,-3.21
2023-01-30T01:56:06.148Z,-3.17
2023-01-30T01:58:32.394Z,-3.11
2023-01-30T02:00:58.779Z,-3.09
2023-01-30T02:03:25.083Z,-3.03
2023-01-30T02:05:51.322Z,-3.09
2023-01-30T02:08:17.554Z,-3.15
2023-01-30T02:10:43.907Z,-3.23
2023-01-30T02:13:10.140Z,-3.15
2023-01-30T02:15:36.397Z,-3.09
2023-01-30T02:18:02.689Z,-3.01
2023-01-30T02:20:28.923Z,-2.92
2023-01-30T02:22:55.185Z,-2.82
2023-01-30T02:25:21.540Z,-2.79
2023-01-30T02:27:47.776Z,-2.86
2023-01-30T02:30:14.019Z,-2.86
2023-01-30T02:32:40.341Z,-2.85
2023-01-30T02:35:06.606Z,-2.99
2023-01-30T02:37:32.881Z,-3.14
2023-01-30T02:39:59.141Z,-3.15
2023-01-30T02:42:25.381Z,-3.59
2023-01-30T02:44:51.606Z,-3.58
2023-01-30T02:47:17.872Z,-3.50
2023-01-30T02:49:44.178Z,-3.42
2023-01-30T02:52:10.461Z,-3.37
2023-01-30T02:54:36.797Z,-3.37
2023-01-30T02:57:03.050Z,-3.41
2023-01-30T02:59:29.359Z,-3.42
2023-01-30T03:01:55.629Z,-3.34
2023-01-30T03:04:21.857Z,-3.36
2023-01-30T03:06:48.114Z,-3.28
2023-01-30T03:09:14.380Z,-3.24
2023-01-30T03:11:40.626Z,-3.26
2023-01-30T03:14:07.031Z,-3.18
2023-01-30T03:16:33.279Z,-3.20
2023-01-30T03:18:59.543Z,-3.13
2023-01-30T03:21:25.798Z,-3.10
2023-01-30T03:23:52.086Z,-3.16
2023-01-30T03:26:18.396Z,-3.67
2023-01-30T03:28:44.687Z,-4.21
2023-01-30T03:31:11.052Z,-4.58
2023-01-30T03:33:37.357Z,-4.41
2023-01-30T03:36:03.668Z,-4.12
2023-01-30T03:38:29.995Z,-3.87
2023-01-30T03:40:56.306Z,-3.67
2023-01-30T03:43:22.552Z,-3.68
2023-01-30T03:45:48.871Z,-3.65
2023-01-30T03:48:15.141Z,-3.62
2023-01-30T03:50:41.585Z,-3.49
2023-01-30T03:53:07.839Z,-3.44
2023-01-30T03:55:34.087Z,-3.41
2023-01-30T03:58:00.326Z,-3.35
2023-01-30T04:00:26.573Z,-3.32
2023-01-30T04:02:52.845Z,-3.31
2023-01-30T04:05:19.520Z,-3.30
2023-01-30T04:07:46.097Z,-3.23
2023-01-30T04:10:12.396Z,-3.22
2023-01-30T04:12:38.659Z,-3.11
2023-01-30T04:15:04.995Z,-3.07
2023-01-30T04:17:31.281Z,-3.16
2023-01-30T04:19:57.567Z,-3.10
2023-01-30T04:22:23.883Z,-2.97
2023-01-30T04:24:50.178Z,-2.86
2023-01-30T04:27:16.436Z,-3.12
2023-01-30T04:29:42.767Z,-3.15
2023-01-30T04:32:09.064Z,-3.10
2023-01-30T04:34:35.302Z,-3.05
2023-01-30T04:37:01.608Z,-3.37
2023-01-30T04:39:27.900Z,-3.14
2023-01-30T04:41:54.146Z,-2.95
2023-01-30T04:44:20.470Z,-2.91
2023-01-30T04:46:46.771Z,-2.81
2023-01-30T04:49:13.045Z,-2.77
2023-01-30T04:51:39.313Z,-3.35
2023-01-30T04:54:05.719Z,-3.15
2023-01-30T04:56:32.006Z,-2.96
2023-01-30T04:58:58.273Z,-2.88
2023-01-30T05:01:24.584Z,-2.79
2023-01-30T05:03:50.876Z,-2.71
2023-01-30T05:06:17.131Z,-2.64
2023-01-30T05:08:45.373Z,-2.58
2023-01-30T05:11:13.046Z,-2.64
2023-01-30T05:13:39.315Z,-2.67
2023-01-30T05:16:05.580Z,-2.56
2023-01-30T05:18:31.904Z,-2.57
2023-01-30T05:20:58.421Z,-2.51
2023-01-30T05:23:24.665Z,-2.46
2023-01-30T05:25:50.988Z,-2.42
2023-01-30T05:28:17.297Z,-2.64
2023-01-30T05:30:45.173Z,-2.83
2023-01-30T05:33:12.547Z,-2.69
2023-01-30T05:35:38.830Z,-2.74
2023-01-30T05:38:05.075Z,-2.78
2023-01-30T05:40:31.372Z,-2.88
2023-01-30T05:42:57.657Z,-2.85
2023-01-30T05:45:23.906Z,-2.84
2023-01-30T05:47:50.230Z,-2.84
2023-01-30T05:50:16.534Z,-2.87
2023-01-30T05:52:42.795Z,-2.96
2023-01-30T05:55:09.101Z,-3.16
2023-01-30T05:57:35.417Z,-3.14
2023-01-30T06:00:01.682Z,-3.18
2023-01-30T06:02:27.945Z,-3.12
2023-01-30T06:04:54.227Z,-3.08
2023-01-30T06:07:20.468Z,-3.06
2023-01-30T06:09:46.705Z,-3.07
2023-01-30T06:12:12.962Z,-3.08
2023-01-30T06:14:39.211Z,-3.13
2023-01-30T06:17:05.551Z,-3.05
2023-01-30T06:19:31.849Z,-2.94
2023-01-30T06:21:58.121Z,-2.86
2023-01-30T06:24:24.446Z,-2.98
2023-01-30T06:26:50.790Z,-2.93
2023-01-30T06:29:17.080Z,-2.83
2023-01-30T06:31:43.398Z,-2.81
2023-01-30T06:34:09.677Z,-2.78
2023-01-30T06:36:35.942Z,-2.73
2023-01-30T06:39:02.222Z,-2.67
2023-01-30T06:41:28.484Z,-2.81
2023-01-30T06:43:54.736Z,-3.03
2023-01-30T06:46:21.092Z,-2.99
2023-01-30T06:48:47.424Z,-3.03
2023-01-30T06:51:13.687Z,-3.08
2023-01-30T06:53:40.019Z,-3.02
2023-01-30T06:56:06.308Z,-3.03
2023-01-30T06:58:32.554Z,-2.99
2023-01-30T07:00:58.828Z,-3.10
2023-01-30T07:03:25.088Z,-3.06
2023-01-30T07:05:51.443Z,-3.06
2023-01-30T07:08:17.742Z,-3.01
2023-01-30T07:10:44.029Z,-3.03
2023-01-30T07:13:10.299Z,-3.04
2023-01-30T07:15:36.626Z,-3.13
2023-01-30T07:18:02.904Z,-3.12
2023-01-30T07:20:29.280Z,-2.98
2023-01-30T07:22:55.632Z,-2.97
2023-01-30T07:25:22.106Z,-3.09
2023-01-30T07:27:48.567Z,-3.38
2023-01-30T07:30:14.989Z,-3.47
2023-01-30T07:32:41.296Z,-3.46
2023-01-30T07:35:07.565Z,-3.31
2023-01-30T07:37:33.872Z,-3.21
2023-01-30T07:40:00.176Z,-3.15
2023-01-30T07:42:26.530Z,-3.08
2023-01-30T07:44:52.765Z,-3.04
2023-01-30T07:47:19.067Z,-2.92
2023-01-30T07:49:45.365Z,-2.82
2023-01-30T07:52:11.609Z,-2.74
2023-01-30T07:54:37.914Z,-2.64
2023-01-30T07:57:04.208Z,-2.53
2023-01-30T07:59:30.455Z,-2.49
2023-01-30T08:01:56.719Z,-3.23
2023-01-30T08:04:23.155Z,-3.52
2023-01-30T08:06:49.419Z,-3.58
2023-01-30T08:09:15.713Z,-3.26
2023-01-30T08:11:42.057Z,-2.95
2023-01-30T08:14:08.412Z,-2.72
2023-01-30T08:16:34.675Z,-2.61
2023-01-30T08:19:01.033Z,-2.51
2023-01-30T08:21:27.315Z,-2.46
2023-01-30T08:23:53.578Z,-2.51
2023-01-30T08:26:19.974Z,-2.51
2023-01-30T08:28:46.370Z,-2.53
2023-01-30T08:31:12.762Z,-2.42
2023-01-30T08:33:39.171Z,-2.41
2023-01-30T08:36:05.550Z,-2.38
2023-01-30T08:38:31.855Z,-2.36
2023-01-30T08:41:00.736Z,-2.27
2023-01-30T08:43:27.133Z,-2.21
2023-01-30T08:45:53.412Z,-2.07
2023-01-30T08:48:19.709Z,-2.08
2023-01-30T08:50:46.024Z,-1.88
2023-01-30T08:53:12.297Z,-1.69
2023-01-30T08:55:38.558Z,-1.78
2023-01-30T08:58:04.817Z,-1.64
2023-01-30T09:00:31.066Z,-1.58
2023-01-30T09:02:57.319Z,-1.46
2023-01-30T09:05:23.610Z,-1.36
2023-01-30T09:07:49.942Z,-1.47
2023-01-30T09:10:16.466Z,-2.38
2023-01-30T09:12:42.942Z,-2.65
2023-01-30T09:15:09.298Z,-2.64
2023-01-30T09:17:35.624Z,-3.75
2023-01-30T09:20:02.049Z,-3.82
2023-01-30T09:22:28.313Z,-3.45
2023-01-30T09:24:54.622Z,-3.14
2023-01-30T09:27:20.940Z,-2.95
2023-01-30T09:29:47.186Z,-3.12
2023-01-30T09:32:13.522Z,-2.80
2023-01-30T09:34:39.799Z,-2.50
2023-01-30T09:37:06.040Z,-2.24
2023-01-30T09:39:32.398Z,-2.01
2023-01-30T09:41:58.707Z,-1.82
2023-01-30T09:44:24.978Z,-1.63
2023-01-30T09:46:51.225Z,-1.46
2023-01-30T09:49:17.543Z,-1.30
2023-01-30T09:51:43.850Z,-1.02
2023-01-30T09:54:10.103Z,-1.02
2023-01-30T09:56:36.455Z,-1.02
2023-01-30T09:59:02.734Z,-0.92
2023-01-30T10:01:29.173Z,-0.84
2023-01-30T10:03:55.501Z,-0.70
2023-01-30T10:06:21.804Z,-0.56
2023-01-30T10:08:49.008Z,-0.41
2023-01-30T10:11:15.372Z,-0.28
2023-01-30T10:13:41.641Z,-0.18
2023-01-30T10:16:07.975Z,-0.11
2023-01-30T10:18:34.276Z,-0.03
2023-01-30T10:21:00.561Z,0.14
2023-01-30T10:23:26.883Z,0.22
2023-01-30T10:25:53.140Z,0.24
2023-01-30T10:28:19.390Z,0.31
2023-01-30T10:30:45.824Z,0.42
2023-01-30T10:33:12.184Z,0.52
2023-01-30T10:35:38.433Z,0.63
2023-01-30T10:38:04.744Z,0.72
2023-01-30T10:40:31.028Z,0.75
2023-01-30T10:42:57.394Z,0.75
2023-01-30T10:45:23.756Z,0.76
2023-01-30T10:47:50.071Z,0.81
2023-01-30T10:50:16.944Z,0.96
2023-01-30T10:52:43.342Z,1.01
2023-01-30T10:55:09.646Z,0.69
2023-01-30T10:57:36.454Z,0.84
2023-01-30T11:00:02.800Z,0.90
2023-01-30T11:02:29.113Z,1.01
2023-01-30T11:04:55.380Z,0.86
2023-01-30T11:07:21.639Z,0.70
2023-01-30T11:09:47.945Z,0.82
2023-01-30T11:12:14.232Z,0.78
2023-01-30T11:14:41.969Z,0.38
2023-01-30T11:17:08.395Z,0.60
2023-01-30T11:19:34.706Z,0.70
2023-01-30T11:22:00.950Z,0.49
2023-01-30T11:24:27.260Z,0.56
2023-01-30T11:26:53.642Z,0.45
2023-01-30T11:29:19.940Z,0.64
2023-01-30T11:31:46.393Z,0.68
2023-01-30T11:34:12.727Z,0.89
2023-01-30T11:36:38.975Z,1.06
2023-01-30T11:39:05.431Z,1.20
2023-01-30T11:41:31.701Z,1.29
2023-01-30T11:43:57.963Z,1.39
2023-01-30T11:46:24.219Z,1.42
2023-01-30T11:49:04.369Z,1.48
2023-01-30T11:51:36.940Z,1.50
2023-01-30T11:54:03.293Z,1.42
2023-01-30T11:56:29.551Z,1.10
2023-01-30T11:58:55.860Z,0.74
2023-01-30T12:01:22.151Z,0.47
2023-01-30T12:03:48.441Z,-0.29
2023-01-30T12:06:14.719Z,-0.81
2023-01-30T12:08:42.401Z,-1.24
2023-01-30T12:11:09.047Z,-0.75
2023-01-30T12:13:35.316Z,-0.48
2023-01-30T12:16:01.702Z,-0.53
2023-01-30T12:18:27.976Z,-0.88
2023-01-30T12:20:54.222Z,-0.82
2023-01-30T12:23:20.567Z,-0.91
2023-01-30T12:25:46.813Z,-0.58
2023-01-30T12:28:13.106Z,-0.48
2023-01-30T12:30:42.299Z,-0.21
2023-01-30T12:33:08.543Z,-0.01
2023-01-30T12:35:35.351Z,0.16
2023-01-30T12:38:01.722Z,0.32
2023-01-30T12:40:27.959Z,0.49
2023-01-30T12:42:54.244Z,0.57
2023-01-30T12:45:20.877Z,0.70
2023-01-30T12:47:47.247Z,0.81
2023-01-30T12:50:13.634Z,0.91
2023-01-30T12:52:40.060Z,1.00
2023-01-30T12:55:07.828Z,1.06
2023-01-30T12:57:34.080Z,1.14
2023-01-30T13:00:00.488Z,1.15
2023-01-30T13:02:27.200Z,0.57
2023-01-30T13:05:01.726Z,0.21
2023-01-30T13:07:30.101Z,0.49
2023-01-30T13:09:56.362Z,0.79
2023-01-30T13:12:22.607Z,0.92
2023-01-30T13:14:48.925Z,1.07
2023-01-30T13:17:15.253Z,1.14
2023-01-30T13:19:41.818Z,1.11
2023-01-30T13:22:08.111Z,1.09
2023-01-30T13:24:34.370Z,1.01
2023-01-30T13:27:00.631Z,1.06
2023-01-30T13:29:26.968Z,1.10
2023-01-30T13:31:53.348Z,1.10
2023-01-30T13:34:19.768Z,1.04
2023-01-30T13:36:46.085Z,0.84
2023-01-30T13:39:12.382Z,0.90
2023-01-30T13:41:38.636Z,0.85
2023-01-30T13:44:05.022Z,0.96
2023-01-30T13:46:31.370Z,1.00
2023-01-30T13:48:57.631Z,0.98
2023-01-30T13:51:23.975Z,0.97
2023-01-30T13:53:50.388Z,0.77
2023-01-30T13:56:39.566Z,0.50
2023-01-30T13:59:03.084Z,0.28
2023-01-30T14:01:29.418Z,0.47
2023-01-30T14:03:55.680Z,0.65
2023-01-30T14:06:22.042Z,0.79
2023-01-30T14:08:48.283Z,0.85
2023-01-30T14:11:14.507Z,0.82
2023-01-30T14:13:40.826Z,0.89
2023-01-30T14:16:07.183Z,0.86
2023-01-30T14:18:33.456Z,0.83
2023-01-30T14:20:59.743Z,0.90
2023-01-30T14:23:26.040Z,0.93
2023-01-30T14:25:52.310Z,0.89
2023-01-30T14:28:18.591Z,0.79
2023-01-30T14:30:44.856Z,0.70
2023-01-30T14:33:11.115Z,0.79
2023-01-30T14:35:37.407Z,0.79
2023-01-30T14:38:03.724Z,0.73
2023-01-30T14:40:29.982Z,0.73
2023-01-30T14:42:56.350Z,0.85
2023-01-30T14:45:22.648Z,0.98
2023-01-30T14:47:50.995Z,1.00
2023-01-30T14:50:18.597Z,1.11
2023-01-30T14:52:45.850Z,1.35
2023-01-30T14:55:12.090Z,1.51
2023-01-30T14:57:38.408Z,1.57
2023-01-30T15:00:15.929Z,1.56
2023-01-30T15:02:43.838Z,1.35
2023-01-30T15:05:10.203Z,1.65
2023-01-30T15:07:36.473Z,1.81
2023-01-30T15:10:02.771Z,0.71
2023-01-30T15:12:29.159Z,0.52
2023-01-30T15:14:55.446Z,0.26
2023-01-30T15:17:21.733Z,0.04
2023-01-30T15:19:48.030Z,-0.04
2023-01-30T15:22:14.286Z,0.40
2023-01-30T15:24:40.656Z,0.68
2023-01-30T15:27:06.924Z,0.92
2023-01-30T15:29:33.160Z,0.98
2023-01-30T15:31:59.529Z,1.15
2023-01-30T15:34:25.849Z,1.29
2023-01-30T15:36:52.099Z,1.35
2023-01-30T15:39:18.419Z,1.36
2023-01-30T15:41:44.709Z,1.36
2023-01-30T15:44:10.965Z,1.37
2023-01-30T15:46:37.256Z,1.41
2023-01-30T15:49:03.509Z,1.39
2023-01-30T15:51:29.763Z,1.32
2023-01-30T15:53:56.876Z,1.29
2023-01-30T15:56:23.232Z,1.31
2023-01-30T15:58:49.458Z,1.23
2023-01-30T16:01:15.798Z,1.22
2023-01-30T16:03:42.127Z,1.25
2023-01-30T16:06:08.567Z,1.20
2023-01-30T16:08:34.885Z,1.13
2023-01-30T16:11:01.150Z,0.93
2023-01-30T16:13:27.429Z,0.84
2023-01-30T16:15:53.725Z,0.76
2023-01-30T16:18:20.043Z,0.62
2023-01-30T16:21:00.207Z,0.56
2023-01-30T16:23:27.733Z,0.56
2023-01-30T16:25:53.965Z,0.52
2023-01-30T16:28:20.226Z,0.43
2023-01-30T16:30:46.662Z,0.36
2023-01-30T16:33:12.972Z,0.21
2023-01-30T16:35:39.222Z,0.21
2023-01-30T16:38:05.479Z,0.16
2023-01-30T16:40:31.747Z,0.07
2023-01-30T16:42:58.006Z,0.06
2023-01-30T16:45:24.284Z,0.09
2023-01-30T16:47:50.613Z,0.09
2023-01-30T16:50:17.134Z,0.09
2023-01-30T16:52:43.666Z,0.10
2023-01-30T16:55:09.954Z,0.06
2023-01-30T16:57:36.512Z,0.10
2023-01-30T17:00:02.952Z,0.12
2023-01-30T17:02:29.404Z,0.07
2023-01-30T17:04:55.705Z,0.08
2023-01-30T17:07:21.976Z,0.12
2023-01-30T17:09:48.205Z,0.08
2023-01-30T17:12:14.520Z,0.02
2023-01-30T17:14:40.825Z,0.02
2023-01-30T17:17:07.076Z,0.00
2023-01-30T17:19:33.382Z,-0.02
2023-01-30T17:21:59.655Z,0.00
2023-01-30T17:24:25.930Z,0.05
2023-01-30T17:26:52.286Z,0.00
2023-01-30T17:29:29.028Z,-0.07
2023-01-30T17:32:00.418Z,-0.07
2023-01-30T17:34:28.774Z,-0.35
2023-01-30T17:36:55.126Z,-0.29
2023-01-30T17:39:21.423Z,-0.35
2023-01-30T17:41:47.742Z,-0.40
2023-01-30T17:44:14.008Z,-0.44
2023-01-30T17:46:40.343Z,-0.37
2023-01-30T17:49:10.404Z,-0.38
2023-01-30T17:51:36.699Z,-0.35
2023-01-30T17:54:02.962Z,-0.30
2023-01-30T17:56:29.281Z,-0.40
2023-01-30T17:58:55.567Z,-0.60
2023-01-30T18:01:21.840Z,-1.01
2023-01-30T18:03:48.590Z,-1.06
2023-01-30T18:06:14.923Z,-0.87
2023-01-30T18:08:41.172Z,-0.73
2023-01-30T18:11:07.607Z,-0.66
2023-01-30T18:13:35.600Z,-0.60
2023-01-30T18:16:01.958Z,-0.66
2023-01-30T18:18:28.288Z,-0.79
2023-01-30T18:20:54.589Z,-0.67
2023-01-30T18:23:20.855Z,-0.57
2023-01-30T18:25:47.175Z,-0.58
2023-01-30T18:28:13.481Z,-0.59
2023-01-30T18:30:39.725Z,-0.57
2023-01-30T18:33:06.047Z,-0.61
2023-01-30T18:35:32.348Z,-0.62
2023-01-30T18:38:02.624Z,-0.66
2023-01-30T18:40:29.267Z,-0.63
2023-01-30T18:42:55.547Z,-0.63
2023-01-30T18:45:21.794Z,-0.60
2023-01-30T18:47:48.046Z,-0.58
2023-01-30T18:50:14.362Z,-0.60
2023-01-30T18:52:40.701Z,-0.55
2023-01-30T18:55:06.966Z,-0.49
2023-01-30T18:57:33.214Z,-0.57
2023-01-30T18:59:59.469Z,-0.56
2023-01-30T19:02:25.764Z,-0.89
2023-01-30T19:04:52.080Z,-1.08
2023-01-30T19:07:18.397Z,-0.89
2023-01-30T19:09:44.643Z,-0.92
2023-01-30T19:12:10.887Z,-0.89
2023-01-30T19:14:37.133Z,-0.91
2023-01-30T19:17:03.360Z,-0.87
2023-01-30T19:19:29.683Z,-0.78
2023-01-30T19:21:56.348Z,-0.85
2023-01-30T19:24:22.607Z,-0.82
2023-01-30T19:26:48.975Z,-0.77
2023-01-30T19:29:15.304Z,-1.05
2023-01-30T19:31:41.702Z,-1.08
2023-01-30T19:34:08.245Z,-0.92
2023-01-30T19:36:34.823Z,-0.91
2023-01-30T19:39:01.096Z,-0.92
2023-01-30T19:41:27.385Z,-0.77
2023-01-30T19:43:53.694Z,-0.63
2023-01-30T19:46:20.027Z,-0.58
2023-01-30T19:48:46.361Z,-0.61
2023-01-30T19:51:12.672Z,-0.59
2023-01-30T19:53:38.917Z,-0.58
2023-01-30T19:56:05.375Z,-0.51
2023-01-30T19:58:31.677Z,-0.48
2023-01-30T20:00:57.924Z,-0.51
2023-01-30T20:03:24.228Z,-0.50
2023-01-30T20:05:50.539Z,-0.54
2023-01-30T20:08:31.758Z,-0.49
2023-01-30T20:10:58.820Z,-0.45
2023-01-30T20:13:25.132Z,-0.57
2023-01-30T20:15:51.463Z,-0.51
2023-01-30T20:18:17.793Z,-0.44
2023-01-30T20:20:44.113Z,-0.68
2023-01-30T20:23:10.346Z,-0.73
2023-01-30T20:25:36.704Z,-0.95
2023-01-30T20:28:03.008Z,-1.10
2023-01-30T20:30:29.275Z,-0.92
2023-01-30T20:32:55.609Z,-0.84
2023-01-30T20:35:21.880Z,-0.83
2023-01-30T20:37:48.110Z,-0.87
2023-01-30T20:40:14.429Z,-0.86
2023-01-30T20:42:40.712Z,-0.93
2023-01-30T20:45:07.020Z,-0.95
2023-01-30T20:47:33.338Z,-0.83
2023-01-30T20:49:59.638Z,-0.78
2023-01-30T20:52:25.938Z,-0.66
2023-01-30T20:54:52.253Z,-0.59
2023-01-30T20:57:18.645Z,-0.57
2023-01-30T20:59:44.915Z,-0.53
2023-01-30T21:02:11.160Z,-0.49
2023-01-30T21:04:37.429Z,-0.46
2023-01-30T21:07:03.667Z,-0.57
2023-01-30T21:09:29.968Z,-0.46
2023-01-30T21:11:56.287Z,-0.51
2023-01-30T21:14:23.016Z,-0.38
2023-01-30T21:16:50.424Z,-0.37
2023-01-30T21:19:16.978Z,-0.40
2023-01-30T21:21:43.591Z,-0.53
2023-01-30T21:24:09.897Z,-0.45
2023-01-30T21:26:36.729Z,-0.44
2023-01-30T21:29:03.159Z,-0.44
2023-01-30T21:31:29.532Z,-0.45
2023-01-30T21:33:55.859Z,-0.46
2023-01-30T21:36:22.120Z,-0.47
2023-01-30T21:38:48.371Z,-0.47
2023-01-30T21:41:14.628Z,-0.39
2023-01-30T21:43:41.126Z,-0.23
2023-01-30T21:46:07.403Z,-0.22
2023-01-30T21:48:33.713Z,-0.52
2023-01-30T21:51:00.012Z,-0.60
2023-01-30T21:53:26.287Z,-0.82
2023-01-30T21:55:52.582Z,-0.84
2023-01-30T21:58:18.883Z,-0.76
2023-01-30T22:00:45.123Z,-0.82
2023-01-30T22:03:11.404Z,-0.75
2023-01-30T22:05:37.689Z,-0.75
2023-01-30T22:08:03.933Z,-0.69
2023-01-30T22:10:30.176Z,-0.68
2023-01-30T22:12:56.428Z,-0.81
2023-01-30T22:15:22.698Z,-1.02
2023-01-30T22:17:48.941Z,-0.74
2023-01-30T22:20:15.173Z,-0.61
2023-01-30T22:22:41.399Z,-0.61
2023-01-30T22:25:07.737Z,-0.63
2023-01-30T22:27:34.035Z,-0.73
2023-01-30T22:30:00.273Z,-0.93
2023-01-30T22:32:26.537Z,-0.91
2023-01-30T22:34:52.786Z,-0.79
2023-01-30T22:37:19.036Z,-0.75
2023-01-30T22:39:45.281Z,-0.80
2023-01-30T22:42:11.535Z,-0.78
2023-01-30T22:44:38.206Z,-0.77
2023-01-30T22:47:04.624Z,-0.76
2023-01-30T22:49:30.947Z,-0.75
2023-01-30T22:51:57.202Z,-0.74
2023-01-30T22:54:25.002Z,-0.78
2023-01-30T22:56:51.415Z,-0.77
2023-01-30T22:59:17.675Z,-0.81
2023-01-30T23:01:43.936Z,-0.88
2023-01-30T23:04:10.184Z,-0.88
2023-01-30T23:06:36.889Z,-0.91
2023-01-30T23:09:03.246Z,-0.86
2023-01-30T23:11:29.507Z,-0.87
2023-01-30T23:13:55.757Z,-0.87
2023-01-30T23:16:22.013Z,-0.89
2023-01-30T23:18:48.299Z,-1.03
2023-01-30T23:21:14.520Z,-1.03
2023-01-30T23:23:41.056Z,-0.99
2023-01-30T23:26:07.360Z,-1.03
2023-01-30T23:28:33.614Z,-0.89
2023-01-30T23:30:59.881Z,-1.18
2023-01-30T23:33:26.160Z,-1.02
2023-01-30T23:35:52.390Z,-0.97
2023-01-30T23:38:18.711Z,-0.99
2023-01-30T23:40:45.021Z,-0.99
2023-01-30T23:43:11.296Z,-1.11
2023-01-30T23:45:37.647Z,-1.00
2023-01-30T23:48:04.011Z,-0.91
2023-01-30T23:50:30.262Z,-1.02
2023-01-30T23:52:56.523Z,-0.90
2023-01-30T23:55:22.753Z,-0.77
2023-01-30T23:57:49.009Z,-0.66
